Portada
METAR-TAF:

METAR-TAF

Aeroports :

Mora, Minnesota, Estats Units d'Amèrica

Mora Municipal Airport

latitud: 45-53-10N, longitud: 093-16-18W, altitud: 309 m

Observació

L'informe es va fer fa 15 hores i 30 minuts, a les 15:16 UTC
Vent 9 kt del Nord/Nord-Oest
Temperatura -11°C
Humitat 85%
Pressió 1012 hPa
Visibilitat: 11.3 km
Núvols disperses a una alçada de 600 ft
Cel cobert a una alçada de 1300 ft

METAR: KJMR 201516Z AUTO 33009KT 7SM SCT006 OVC013 M11/M13 A2988 RMK AO2

Hora: 00:46 (06:46 UTC)


TAF: manca

Observacions i pronòstics meteorològics de més de 4000 aeroports (METAR i TAF).

Les estacions disponibles són els punts grocs i vermells al mapa.

Posi el ratolí al punt desitjat per veure el nom de l'estació.

Feu clic per veure les observacions i els pronòstics meteorològics.

Per canviar el mapa: feu clic els botons verds amb una creu de color negre per apropar; al botó verd amb un guió per allunyar la imatge; o en les fletxes verdes per a mapes adjacents.


METAR-TAF: